sensor_id;sensor_type;location;lat;lon;timestamp;pressure;altitude;pressure_sealevel;temperature;humidity
10840;BME280;5473;42.706;23.328;2023-02-12T00:01:50;38681.09;;;-142.93;88.47
10840;BME280;5473;42.706;23.328;2023-02-12T00:04:17;38647.25;;;-142.93;86.96
10840;BME280;5473;42.706;23.328;2023-02-12T00:06:43;38557.69;;;-142.93;85.30
10840;BME280;5473;42.706;23.328;2023-02-12T00:09:12;38543.75;;;-142.93;84.96
10840;BME280;5473;42.706;23.328;2023-02-12T00:11:38;38549.72;;;-142.93;84.42
10840;BME280;5473;42.706;23.328;2023-02-12T00:14:05;38569.63;;;-142.93;84.98
10840;BME280;5473;42.706;23.328;2023-02-12T00:16:32;38577.59;;;-142.93;85.40
10840;BME280;5473;42.706;23.328;2023-02-12T00:18:59;38599.47;;;-142.93;85.70
10840;BME280;5473;42.706;23.328;2023-02-12T00:21:26;38557.69;;;-142.93;85.65
10840;BME280;5473;42.706;23.328;2023-02-12T00:23:54;38623.38;;;-142.93;86.06
10840;BME280;5473;42.706;23.328;2023-02-12T00:26:23;38613.41;;;-142.93;87.00
10840;BME280;5473;42.706;23.328;2023-02-12T00:28:50;38625.38;;;-142.93;86.96
10840;BME280;5473;42.706;23.328;2023-02-12T00:31:18;38645.28;;;-142.93;87.27
10840;BME280;5473;42.706;23.328;2023-02-12T00:33:46;38671.16;;;-142.93;87.87
10840;BME280;5473;42.706;23.328;2023-02-12T00:36:15;38742.81;;;-142.93;89.38
10840;BME280;5473;42.706;23.328;2023-02-12T00:38:42;38776.66;;;-142.93;90.43
10840;BME280;5473;42.706;23.328;2023-02-12T00:41:10;38784.59;;;-142.93;90.29
10840;BME280;5473;42.706;23.328;2023-02-12T00:43:38;38782.63;;;-142.93;90.26
10840;BME280;5473;42.706;23.328;2023-02-12T00:46:05;38788.59;;;-142.93;89.64
10840;BME280;5473;42.706;23.328;2023-02-12T00:48:33;38792.56;;;-142.93;89.94
10840;BME280;5473;42.706;23.328;2023-02-12T00:51:00;38768.69;;;-142.93;89.79
10840;BME280;5473;42.706;23.328;2023-02-12T00:53:27;38776.66;;;-142.93;89.52
10840;BME280;5473;42.706;23.328;2023-02-12T00:55:54;38782.63;;;-142.93;89.92
10840;BME280;5473;42.706;23.328;2023-02-12T00:58:21;38806.50;;;-142.93;90.78
10840;BME280;5473;42.706;23.328;2023-02-12T01:00:49;38852.28;;;-142.93;91.53
10840;BME280;5473;42.706;23.328;2023-02-12T01:03:16;38902.06;;;-142.93;92.33
10840;BME280;5473;42.706;23.328;2023-02-12T01:05:43;38890.09;;;-142.93;92.68
10840;BME280;5473;42.706;23.328;2023-02-12T01:08:10;38919.97;;;-142.93;92.94
10840;BME280;5473;42.706;23.328;2023-02-12T01:10:38;38902.06;;;-142.93;92.87
10840;BME280;5473;42.706;23.328;2023-02-12T01:13:05;38832.38;;;-142.93;91.60
10840;BME280;5473;42.706;23.328;2023-02-12T01:15:31;38792.56;;;-142.93;89.81
10840;BME280;5473;42.706;23.328;2023-02-12T01:17:59;38728.88;;;-142.93;88.63
10840;BME280;5473;42.706;23.328;2023-02-12T01:20:26;38695.03;;;-142.93;88.27
10840;BME280;5473;42.706;23.328;2023-02-12T01:22:53;38679.09;;;-142.93;88.08
10840;BME280;5473;42.706;23.328;2023-02-12T01:25:20;38716.94;;;-142.93;88.59
10840;BME280;5473;42.706;23.328;2023-02-12T01:27:46;38708.97;;;-142.93;88.50
10840;BME280;5473;42.706;23.328;2023-02-12T01:30:14;38738.81;;;-142.93;88.91
10840;BME280;5473;42.706;23.328;2023-02-12T01:32:41;38764.69;;;-142.93;89.64
10840;BME280;5473;42.706;23.328;2023-02-12T01:35:10;38768.69;;;-142.93;90.38
10840;BME280;5473;42.706;23.328;2023-02-12T01:37:37;38804.50;;;-142.93;90.83
10840;BME280;5473;42.706;23.328;2023-02-12T01:40:05;38872.19;;;-142.93;91.92
10840;BME280;5473;42.706;23.328;2023-02-12T01:42:32;38908.03;;;-142.93;92.26
10840;BME280;5473;42.706;23.328;2023-02-12T01:47:59;38937.88;;;-142.93;93.36
10840;BME280;5473;42.706;23.328;2023-02-12T01:50:27;39003.56;;;-142.93;93.52
10840;BME280;5473;42.706;23.328;2023-02-12T01:52:56;39021.50;;;-142.93;94.40
10840;BME280;5473;42.706;23.328;2023-02-12T01:55:24;39037.41;;;-142.93;95.58
10840;BME280;5473;42.706;23.328;2023-02-12T01:57:51;39067.28;;;-142.93;96.52
10840;BME280;5473;42.706;23.328;2023-02-12T02:00:20;39111.06;;;-142.93;97.31
10840;BME280;5473;42.706;23.328;2023-02-12T02:02:49;39188.72;;;-142.93;98.06
10840;BME280;5473;42.706;23.328;2023-02-12T02:05:21;39240.47;;;-142.93;99.54
10840;BME280;5473;42.706;23.328;2023-02-12T02:07:50;39348.00;;;-142.93;100.00
10840;BME280;5473;42.706;23.328;2023-02-12T02:10:18;39401.75;;;-142.93;100.00
10840;BME280;5473;42.706;23.328;2023-02-12T02:12:45;39505.28;;;-142.93;100.00
10840;BME280;5473;42.706;23.328;2023-02-12T02:15:30;39553.06;;;-142.93;100.00
10840;BME280;5473;42.706;23.328;2023-02-12T02:18:00;39592.88;;;-142.93;100.00
10840;BME280;5473;42.706;23.328;2023-02-12T02:20:59;39718.31;;;-142.93;100.00
10840;BME280;5473;42.706;23.328;2023-02-12T02:23:49;39801.94;;;-142.93;100.00
10840;BME280;5473;42.706;23.328;2023-02-12T02:29:23;39829.81;;;-142.93;100.00
10840;BME280;5473;42.706;23.328;2023-02-12T02:32:02;39861.69;;;-142.93;100.00
10840;BME280;5473;42.706;23.328;2023-02-12T02:34:37;39883.59;;;-142.93;100.00
10840;BME280;5473;42.706;23.328;2023-02-12T02:37:14;39837.78;;;-142.93;100.00
10840;BME280;5473;42.706;23.328;2023-02-12T02:39:48;39925.41;;;-142.93;100.00
10840;BME280;5473;42.706;23.328;2023-02-12T02:42:22;39895.53;;;-142.93;100.00
10840;BME280;5473;42.706;23.328;2023-02-12T02:44:53;39831.81;;;-142.93;100.00
10840;BME280;5473;42.706;23.328;2023-02-12T02:47:25;39786.03;;;-142.93;100.00
10840;BME280;5473;42.706;23.328;2023-02-12T02:50:01;39698.41;;;-142.93;100.00
10840;BME280;5473;42.706;23.328;2023-02-12T02:52:34;39662.56;;;-142.93;100.00
10840;BME280;5473;42.706;23.328;2023-02-12T02:55:05;39638.69;;;-142.93;100.00
10840;BME280;5473;42.706;23.328;2023-02-12T02:57:36;39590.91;;;-142.93;100.00
10840;BME280;5473;42.706;23.328;2023-02-12T03:00:08;39606.81;;;-142.93;100.00
10840;BME280;5473;42.706;23.328;2023-02-12T03:02:43;39598.84;;;-142.93;100.00
10840;BME280;5473;42.706;23.328;2023-02-12T03:05:16;39586.91;;;-142.93;100.00
10840;BME280;5473;42.706;23.328;2023-02-12T03:07:47;39586.91;;;-142.93;100.00
10840;BME280;5473;42.706;23.328;2023-02-12T03:10:19;39626.72;;;-142.93;100.00
10840;BME280;5473;42.706;23.328;2023-02-12T03:12:51;39616.78;;;-142.93;100.00
10840;BME280;5473;42.706;23.328;2023-02-12T03:15:23;39614.78;;;-142.93;100.00
10840;BME280;5473;42.706;23.328;2023-02-12T03:17:54;39596.88;;;-142.93;100.00
10840;BME280;5473;42.706;23.328;2023-02-12T03:20:27;39578.94;;;-142.93;100.00
10840;BME280;5473;42.706;23.328;2023-02-12T03:22:57;39606.81;;;-142.93;100.00
10840;BME280;5473;42.706;23.328;2023-02-12T03:25:30;39543.09;;;-142.93;100.00
10840;BME280;5473;42.706;23.328;2023-02-12T03:28:03;39547.09;;;-142.93;100.00
10840;BME280;5473;42.706;23.328;2023-02-12T03:30:38;39511.25;;;-142.93;100.00
10840;BME280;5473;42.706;23.328;2023-02-12T03:33:18;39411.69;;;-142.93;100.00
10840;BME280;5473;42.706;23.328;2023-02-12T03:35:54;39361.94;;;-142.93;100.00
10840;BME280;5473;42.706;23.328;2023-02-12T03:38:29;39300.22;;;-142.93;100.00
10840;BME280;5473;42.706;23.328;2023-02-12T03:41:04;39312.16;;;-142.93;100.00
10840;BME280;5473;42.706;23.328;2023-02-12T03:43:38;39262.38;;;-142.93;100.00
10840;BME280;5473;42.706;23.328;2023-02-12T03:46:11;39278.31;;;-142.93;100.00
10840;BME280;5473;42.706;23.328;2023-02-12T03:48:45;39248.44;;;-142.93;100.00
10840;BME280;5473;42.706;23.328;2023-02-12T03:51:20;39230.53;;;-142.93;100.00
10840;BME280;5473;42.706;23.328;2023-02-12T03:53:49;39292.25;;;-142.93;100.00
10840;BME280;5473;42.706;23.328;2023-02-12T03:56:21;39260.38;;;-142.93;100.00
10840;BME280;5473;42.706;23.328;2023-02-12T03:58:49;39248.44;;;-142.93;100.00
10840;BME280;5473;42.706;23.328;2023-02-12T04:01:16;39182.75;;;-142.93;99.71
10840;BME280;5473;42.706;23.328;2023-02-12T04:03:44;39252.44;;;-142.93;99.53
10840;BME280;5473;42.706;23.328;2023-02-12T04:06:19;39190.72;;;-142.93;99.38
10840;BME280;5473;42.706;23.328;2023-02-12T04:08:46;39206.63;;;-142.93;98.92
10840;BME280;5473;42.706;23.328;2023-02-12T04:11:23;39148.91;;;-142.93;98.79
10840;BME280;5473;42.706;23.328;2023-02-12T04:14:01;39188.72;;;-142.93;98.90
10840;BME280;5473;42.706;23.328;2023-02-12T04:16:35;39192.69;;;-142.93;98.88
10840;BME280;5473;42.706;23.328;2023-02-12T04:19:10;39216.59;;;-142.93;98.95
10840;BME280;5473;42.706;23.328;2023-02-12T04:21:46;39192.69;;;-142.93;98.90
10840;BME280;5473;42.706;23.328;2023-02-12T04:24:18;39184.75;;;-142.93;99.06
10840;BME280;5473;42.706;23.328;2023-02-12T04:26:48;39206.63;;;-142.93;99.08
10840;BME280;5473;42.706;23.328;2023-02-12T04:29:24;39194.69;;;-142.93;99.67
10840;BME280;5473;42.706;23.328;2023-02-12T04:31:55;39232.53;;;-142.93;99.65
10840;BME280;5473;42.706;23.328;2023-02-12T04:34:31;39260.38;;;-142.93;100.00
10840;BME280;5473;42.706;23.328;2023-02-12T04:37:04;39344.00;;;-142.93;100.00
10840;BME280;5473;42.706;23.328;2023-02-12T04:39:35;39316.13;;;-142.93;100.00
10840;BME280;5473;42.706;23.328;2023-02-12T04:42:03;39320.13;;;-142.93;100.00
10840;BME280;5473;42.706;23.328;2023-02-12T04:44:31;39306.19;;;-142.93;100.00
10840;BME280;5473;42.706;23.328;2023-02-12T04:46:58;39324.09;;;-142.93;100.00
10840;BME280;5473;42.706;23.328;2023-02-12T04:49:27;39318.13;;;-142.93;100.00
10840;BME280;5473;42.706;23.328;2023-02-12T04:51:53;39357.94;;;-142.93;100.00
10840;BME280;5473;42.706;23.328;2023-02-12T04:54:21;39413.69;;;-142.93;100.00
10840;BME280;5473;42.706;23.328;2023-02-12T04:56:49;39361.94;;;-142.93;100.00
10840;BME280;5473;42.706;23.328;2023-02-12T04:59:16;39346.00;;;-142.93;100.00
10840;BME280;5473;42.706;23.328;2023-02-12T05:01:43;39306.19;;;-142.93;100.00
10840;BME280;5473;42.706;23.328;2023-02-12T05:04:12;39270.34;;;-142.93;99.73
10840;BME280;5473;42.706;23.328;2023-02-12T05:06:41;39242.47;;;-142.93;98.64
10840;BME280;5473;42.706;23.328;2023-02-12T05:09:09;39176.78;;;-142.93;97.60
10840;BME280;5473;42.706;23.328;2023-02-12T05:11:38;39150.91;;;-142.93;97.40
10840;BME280;5473;42.706;23.328;2023-02-12T05:14:08;39138.94;;;-142.93;96.24
10840;BME280;5473;42.706;23.328;2023-02-12T05:16:35;39063.31;;;-142.93;95.94
10840;BME280;5473;42.706;23.328;2023-02-12T05:19:02;39049.38;;;-142.93;94.74
10840;BME280;5473;42.706;23.328;2023-02-12T05:21:28;39025.47;;;-142.93;94.44
10840;BME280;5473;42.706;23.328;2023-02-12T05:23:57;39003.56;;;-142.93;93.98
10840;BME280;5473;42.706;23.328;2023-02-12T05:26:23;39009.56;;;-142.93;93.80
10840;BME280;5473;42.706;23.328;2023-02-12T05:28:50;39021.50;;;-142.93;94.63
10840;BME280;5473;42.706;23.328;2023-02-12T05:31:18;39039.41;;;-142.93;94.76
10840;BME280;5473;42.706;23.328;2023-02-12T05:33:46;39047.38;;;-142.93;94.74
10840;BME280;5473;42.706;23.328;2023-02-12T05:36:15;39067.28;;;-142.93;94.59
10840;BME280;5473;42.706;23.328;2023-02-12T05:38:42;39109.09;;;-142.93;96.03
10840;BME280;5473;42.706;23.328;2023-02-12T05:41:14;39210.63;;;-142.93;97.79
10840;BME280;5473;42.706;23.328;2023-02-12T05:43:41;39206.63;;;-142.93;98.11
10840;BME280;5473;42.706;23.328;2023-02-12T05:46:08;39286.28;;;-142.93;99.02
10840;BME280;5473;42.706;23.328;2023-02-12T05:48:36;39320.13;;;-142.93;100.00
10840;BME280;5473;42.706;23.328;2023-02-12T05:51:04;39425.63;;;-142.93;100.00
10840;BME280;5473;42.706;23.328;2023-02-12T05:53:31;39485.38;;;-142.93;100.00
10840;BME280;5473;42.706;23.328;2023-02-12T05:56:14;39523.19;;;-142.93;100.00
10840;BME280;5473;42.706;23.328;2023-02-12T05:58:44;39555.06;;;-142.93;100.00
10840;BME280;5473;42.706;23.328;2023-02-12T06:01:13;39646.66;;;-142.93;100.00
10840;BME280;5473;42.706;23.328;2023-02-12T06:03:40;39764.13;;;-142.93;100.00
10840;BME280;5473;42.706;23.328;2023-02-12T06:06:08;39680.50;;;-142.93;100.00
10840;BME280;5473;42.706;23.328;2023-02-12T06:08:35;39208.63;;;-142.93;100.00
10840;BME280;5473;42.706;23.328;2023-02-12T06:11:04;39103.13;;;-142.93;100.00
10840;BME280;5473;42.706;23.328;2023-02-12T06:13:32;38828.41;;;-142.93;100.00
10840;BME280;5473;42.706;23.328;2023-02-12T06:16:02;38577.59;;;-142.93;100.00
10840;BME280;5473;42.706;23.328;2023-02-12T06:18:29;38245.19;;;-142.93;100.00
10840;BME280;5473;42.706;23.328;2023-02-12T06:20:56;38153.66;;;-142.93;100.00
10840;BME280;5473;42.706;23.328;2023-02-12T06:23:24;37964.59;;;-142.93;100.00
10840;BME280;5473;42.706;23.328;2023-02-12T06:25:55;36609.59;;;-142.93;100.00
10840;BME280;5473;42.706;23.328;2023-02-12T06:28:22;35161.69;;;-142.93;100.00
10840;BME280;5473;42.706;23.328;2023-02-12T06:30:50;32470.41;;;-142.93;100.00
10840;BME280;5473;42.706;23.328;2023-02-12T06:33:17;26558.81;;;-142.93;100.00
10840;BME280;5473;42.706;23.328;2023-02-12T06:35:43;22753.00;;;-142.93;100.00
10840;BME280;5473;42.706;23.328;2023-02-12T06:38:10;19964.84;;;-142.93;100.00
10840;BME280;5473;42.706;23.328;2023-02-12T06:40:37;18445.00;;;-142.93;100.00
10840;BME280;5473;42.706;23.328;2023-02-12T06:43:04;17179.00;;;-142.93;100.00
10840;BME280;5473;42.706;23.328;2023-02-12T06:45:32;15913.50;;;-142.93;100.00
10840;BME280;5473;42.706;23.328;2023-02-12T06:48:00;14901.44;;;-142.93;100.00
10840;BME280;5473;42.706;23.328;2023-02-12T06:50:28;14142.59;;;-142.93;100.00
10840;BME280;5473;42.706;23.328;2023-02-12T06:52:54;13131.09;;;-142.93;100.00
10840;BME280;5473;42.706;23.328;2023-02-12T06:55:21;11867.13;;;-142.93;100.00
10840;BME280;5473;42.706;23.328;2023-02-12T06:57:48;11108.97;;;-142.93;100.00
10840;BME280;5473;42.706;23.328;2023-02-12T07:00:15;10098.38;;;-142.93;100.00
10840;BME280;5473;42.706;23.328;2023-02-12T07:02:42;9593.19;;;-142.93;100.00
10840;BME280;5473;42.706;23.328;2023-02-12T07:05:10;9340.63;;;-142.93;100.00
10840;BME280;5473;42.706;23.328;2023-02-12T07:07:37;8583.06;;;-142.93;100.00
10840;BME280;5473;42.706;23.328;2023-02-12T07:10:05;8583.06;;;-142.93;100.00
10840;BME280;5473;42.706;23.328;2023-02-12T07:12:33;8835.56;;;-142.93;100.00
10840;BME280;5473;42.706;23.328;2023-02-12T07:14:59;9088.09;;;-142.93;100.00
10840;BME280;5473;42.706;23.328;2023-02-12T07:17:28;9593.19;;;-142.93;100.00
10840;BME280;5473;42.706;23.328;2023-02-12T07:19:55;10098.38;;;-142.93;100.00
10840;BME280;5473;42.706;23.328;2023-02-12T07:22:23;10098.38;;;-142.93;100.00
10840;BME280;5473;42.706;23.328;2023-02-12T07:24:50;10603.63;;;-142.93;100.00
10840;BME280;5473;42.706;23.328;2023-02-12T07:27:17;11108.97;;;-142.93;100.00
10840;BME280;5473;42.706;23.328;2023-02-12T07:29:44;10856.28;;;-142.93;100.00
10840;BME280;5473;42.706;23.328;2023-02-12T07:32:10;10856.28;;;-142.93;100.00
10840;BME280;5473;42.706;23.328;2023-02-12T07:34:37;10856.28;;;-142.93;100.00
10840;BME280;5473;42.706;23.328;2023-02-12T07:37:04;11361.66;;;-142.93;100.00
10840;BME280;5473;42.706;23.328;2023-02-12T07:39:32;11108.97;;;-142.93;100.00
10840;BME280;5473;42.706;23.328;2023-02-12T07:41:59;10856.28;;;-142.93;100.00
10840;BME280;5473;42.706;23.328;2023-02-12T07:44:26;11108.97;;;-142.93;100.00
10840;BME280;5473;42.706;23.328;2023-02-12T07:46:52;11108.97;;;-142.93;100.00
10840;BME280;5473;42.706;23.328;2023-02-12T07:49:20;10856.28;;;-142.93;100.00
10840;BME280;5473;42.706;23.328;2023-02-12T07:51:48;10351.00;;;-142.93;100.00
10840;BME280;5473;42.706;23.328;2023-02-12T07:54:15;9845.78;;;-142.93;100.00
10840;BME280;5473;42.706;23.328;2023-02-12T07:56:44;9088.09;;;-142.93;100.00
10840;BME280;5473;42.706;23.328;2023-02-12T07:59:13;9340.63;;;-142.93;100.00
10840;BME280;5473;42.706;23.328;2023-02-12T08:01:41;9088.09;;;-142.93;100.00
10840;BME280;5473;42.706;23.328;2023-02-12T08:04:11;8583.06;;;-142.93;100.00
10840;BME280;5473;42.706;23.328;2023-02-12T08:06:40;8078.13;;;-142.93;100.00
10840;BME280;5473;42.706;23.328;2023-02-12T08:09:13;7573.25;;;-142.93;100.00
10840;BME280;5473;42.706;23.328;2023-02-12T08:11:43;7320.84;;;-142.93;100.00
10840;BME280;5473;42.706;23.328;2023-02-12T08:14:12;7068.47;;;-142.93;100.00
10840;BME280;5473;42.706;23.328;2023-02-12T08:16:39;6816.09;;;-142.93;100.00
10840;BME280;5473;42.706;23.328;2023-02-12T08:19:07;7068.47;;;-142.93;100.00
10840;BME280;5473;42.706;23.328;2023-02-12T08:21:35;6816.09;;;-142.93;100.00
10840;BME280;5473;42.706;23.328;2023-02-12T08:24:02;7320.84;;;-142.93;100.00
10840;BME280;5473;42.706;23.328;2023-02-12T08:26:30;7320.84;;;-142.93;100.00
10840;BME280;5473;42.706;23.328;2023-02-12T08:29:01;8330.59;;;-142.93;100.00
10840;BME280;5473;42.706;23.328;2023-02-12T08:31:29;8330.59;;;-142.93;100.00
10840;BME280;5473;42.706;23.328;2023-02-12T08:33:57;8835.56;;;-142.93;100.00
10840;BME280;5473;42.706;23.328;2023-02-12T08:36:26;8835.56;;;-142.93;100.00
10840;BME280;5473;42.706;23.328;2023-02-12T08:38:57;8835.56;;;-142.93;100.00
10840;BME280;5473;42.706;23.328;2023-02-12T08:41:26;8583.06;;;-142.93;100.00
10840;BME280;5473;42.706;23.328;2023-02-12T08:43:54;9088.09;;;-142.93;100.00
10840;BME280;5473;42.706;23.328;2023-02-12T08:46:24;9340.63;;;-142.93;100.00
10840;BME280;5473;42.706;23.328;2023-02-12T08:48:53;9845.78;;;-142.93;100.00
10840;BME280;5473;42.706;23.328;2023-02-12T08:51:22;10856.28;;;-142.93;100.00
10840;BME280;5473;42.706;23.328;2023-02-12T08:53:51;10856.28;;;-142.93;100.00
10840;BME280;5473;42.706;23.328;2023-02-12T08:56:18;11108.97;;;-142.93;100.00
10840;BME280;5473;42.706;23.328;2023-02-12T08:58:46;11361.66;;;-142.93;100.00
10840;BME280;5473;42.706;23.328;2023-02-12T09:01:14;12372.66;;;-142.93;100.00
10840;BME280;5473;42.706;23.328;2023-02-12T09:03:44;13131.09;;;-142.93;100.00
10840;BME280;5473;42.706;23.328;2023-02-12T09:06:12;13131.09;;;-142.93;100.00
10840;BME280;5473;42.706;23.328;2023-02-12T09:08:39;13636.81;;;-142.93;100.00
10840;BME280;5473;42.706;23.328;2023-02-12T09:11:07;13383.94;;;-142.93;100.00
10840;BME280;5473;42.706;23.328;2023-02-12T09:13:35;13131.09;;;-142.93;100.00
10840;BME280;5473;42.706;23.328;2023-02-12T09:16:03;13636.81;;;-142.93;100.00
10840;BME280;5473;42.706;23.328;2023-02-12T09:18:30;14395.53;;;-142.93;100.00
10840;BME280;5473;42.706;23.328;2023-02-12T09:21:02;14142.59;;;-142.93;100.00
10840;BME280;5473;42.706;23.328;2023-02-12T09:23:29;13889.69;;;-142.93;100.00
10840;BME280;5473;42.706;23.328;2023-02-12T09:25:56;14142.59;;;-142.93;100.00
10840;BME280;5473;42.706;23.328;2023-02-12T09:28:23;14901.44;;;-142.93;100.00
10840;BME280;5473;42.706;23.328;2023-02-12T09:30:50;14901.44;;;-142.93;100.00
10840;BME280;5473;42.706;23.328;2023-02-12T09:33:17;15913.50;;;-142.93;100.00
10840;BME280;5473;42.706;23.328;2023-02-12T09:35:44;19711.50;;;-142.93;100.00
10840;BME280;5473;42.706;23.328;2023-02-12T09:38:12;20471.59;;;-142.93;100.00
10840;BME280;5473;42.706;23.328;2023-02-12T09:40:45;21485.38;;;-142.93;100.00
10840;BME280;5473;42.706;23.328;2023-02-12T09:43:18;20218.22;;;-142.93;100.00
10840;BME280;5473;42.706;23.328;2023-02-12T09:45:54;20471.59;;;-142.93;100.00
10840;BME280;5473;42.706;23.328;2023-02-12T09:48:44;19204.84;;;-142.93;100.00
10840;BME280;5473;42.706;23.328;2023-02-12T09:51:14;19711.50;;;-142.93;100.00
10840;BME280;5473;42.706;23.328;2023-02-12T09:53:44;19711.50;;;-142.93;100.00
10840;BME280;5473;42.706;23.328;2023-02-12T09:56:13;19204.84;;;-142.93;100.00
10840;BME280;5473;42.706;23.328;2023-02-12T09:58:44;21992.38;;;-142.93;100.00
10840;BME280;5473;42.706;23.328;2023-02-12T10:01:13;23006.59;;;-142.93;100.00
10840;BME280;5473;42.706;23.328;2023-02-12T10:03:41;25289.75;;;-142.93;100.00
10840;BME280;5473;42.706;23.328;2023-02-12T10:06:13;27645.88;;;-142.93;100.00
10840;BME280;5473;42.706;23.328;2023-02-12T10:08:58;31405.63;;;-142.93;100.00
10840;BME280;5473;42.706;23.328;2023-02-12T10:11:48;31330.16;;;-142.93;100.00
10840;BME280;5473;42.706;23.328;2023-02-12T10:17:26;33517.66;;;-142.93;100.00
10840;BME280;5473;42.706;23.328;2023-02-12T10:23:02;35165.66;;;-142.93;100.00
10840;BME280;5473;42.706;23.328;2023-02-12T10:25:43;35913.41;;;-142.93;100.00
10840;BME280;5473;42.706;23.328;2023-02-12T10:28:13;36528.03;;;-142.93;100.00
10840;BME280;5473;42.706;23.328;2023-02-12T10:30:44;37337.75;;;-142.93;100.00
10840;BME280;5473;42.706;23.328;2023-02-12T10:33:17;38129.75;;;-142.93;100.00
10840;BME280;5473;42.706;23.328;2023-02-12T10:35:50;38288.97;;;-142.93;100.00
10840;BME280;5473;42.706;23.328;2023-02-12T10:38:21;38382.53;;;-142.93;100.00
10840;BME280;5473;42.706;23.328;2023-02-12T10:40:52;38436.28;;;-142.93;100.00
10840;BME280;5473;42.706;23.328;2023-02-12T10:43:23;38557.69;;;-142.93;100.00
10840;BME280;5473;42.706;23.328;2023-02-12T10:45:50;38587.53;;;-142.93;100.00
10840;BME280;5473;42.706;23.328;2023-02-12T10:48:19;38643.28;;;-142.93;100.00
10840;BME280;5473;42.706;23.328;2023-02-12T10:50:54;38599.47;;;-142.93;100.00
10840;BME280;5473;42.706;23.328;2023-02-12T10:53:24;38593.50;;;-142.93;100.00
10840;BME280;5473;42.706;23.328;2023-02-12T10:56:10;38641.28;;;-142.93;100.00
10840;BME280;5473;42.706;23.328;2023-02-12T10:58:40;38643.28;;;-142.93;100.00
10840;BME280;5473;42.706;23.328;2023-02-12T11:01:15;38639.28;;;-142.93;100.00
10840;BME280;5473;42.706;23.328;2023-02-12T11:03:42;38675.13;;;-142.93;100.00
10840;BME280;5473;42.706;23.328;2023-02-12T11:06:15;38708.97;;;-142.93;100.00
10840;BME280;5473;42.706;23.328;2023-02-12T11:08:43;38675.13;;;-142.93;100.00
10840;BME280;5473;42.706;23.328;2023-02-12T11:11:20;38683.09;;;-142.93;100.00
10840;BME280;5473;42.706;23.328;2023-02-12T11:13:54;38665.16;;;-142.93;100.00
10840;BME280;5473;42.706;23.328;2023-02-12T11:16:30;38595.50;;;-142.93;100.00
10840;BME280;5473;42.706;23.328;2023-02-12T11:19:00;38635.31;;;-142.93;100.00
10840;BME280;5473;42.706;23.328;2023-02-12T11:21:27;38563.66;;;-142.93;100.00
10840;BME280;5473;42.706;23.328;2023-02-12T11:23:53;38515.88;;;-142.93;100.00
10840;BME280;5473;42.706;23.328;2023-02-12T11:26:25;38468.13;;;-142.93;100.00
10840;BME280;5473;42.706;23.328;2023-02-12T11:28:55;38354.66;;;-142.93;98.04
10840;BME280;5473;42.706;23.328;2023-02-12T11:31:23;38474.09;;;-142.93;98.40
10840;BME280;5473;42.706;23.328;2023-02-12T11:34:12;38422.34;;;-142.93;96.85
10840;BME280;5473;42.706;23.328;2023-02-12T11:36:41;38422.34;;;-142.93;96.51
10840;BME280;5473;42.706;23.328;2023-02-12T11:39:17;38416.38;;;-142.93;97.46
10840;BME280;5473;42.706;23.328;2023-02-12T11:41:49;38519.88;;;-142.93;98.78
10840;BME280;5473;42.706;23.328;2023-02-12T11:44:18;38446.22;;;-142.93;97.26
10840;BME280;5473;42.706;23.328;2023-02-12T11:46:47;38499.97;;;-142.93;98.60
10840;BME280;5473;42.706;23.328;2023-02-12T11:49:18;38442.25;;;-142.93;97.10
10840;BME280;5473;42.706;23.328;2023-02-12T11:51:47;38402.44;;;-142.93;96.04
10840;BME280;5473;42.706;23.328;2023-02-12T11:54:19;38420.34;;;-142.93;95.84
10840;BME280;5473;42.706;23.328;2023-02-12T11:56:49;38545.75;;;-142.93;98.94
10840;BME280;5473;42.706;23.328;2023-02-12T11:59:32;38515.88;;;-142.93;98.05
10840;BME280;5473;42.706;23.328;2023-02-12T12:02:04;38539.78;;;-142.93;98.61
10840;BME280;5473;42.706;23.328;2023-02-12T12:04:35;38555.69;;;-142.93;99.90
10840;BME280;5473;42.706;23.328;2023-02-12T12:07:10;38587.53;;;-142.93;100.00
10840;BME280;5473;42.706;23.328;2023-02-12T12:09:42;38581.56;;;-142.93;100.00
10840;BME280;5473;42.706;23.328;2023-02-12T12:12:15;38607.44;;;-142.93;100.00
10840;BME280;5473;42.706;23.328;2023-02-12T12:14:47;38621.38;;;-142.93;100.00
10840;BME280;5473;42.706;23.328;2023-02-12T12:17:39;38657.22;;;-142.93;100.00
10840;BME280;5473;42.706;23.328;2023-02-12T12:20:26;38665.16;;;-142.93;100.00
10840;BME280;5473;42.706;23.328;2023-02-12T12:22:58;38732.84;;;-142.93;100.00
10840;BME280;5473;42.706;23.328;2023-02-12T12:25:29;38695.03;;;-142.93;100.00
10840;BME280;5473;42.706;23.328;2023-02-12T12:28:07;38710.94;;;-142.93;100.00
10840;BME280;5473;42.706;23.328;2023-02-12T12:30:57;38695.03;;;-142.93;100.00
10840;BME280;5473;42.706;23.328;2023-02-12T12:33:37;38738.81;;;-142.93;100.00
10840;BME280;5473;42.706;23.328;2023-02-12T12:39:11;38734.84;;;-142.93;100.00
10840;BME280;5473;42.706;23.328;2023-02-12T12:41:53;38675.13;;;-142.93;100.00
10840;BME280;5473;42.706;23.328;2023-02-12T12:44:32;38675.13;;;-142.93;100.00
10840;BME280;5473;42.706;23.328;2023-02-12T12:47:14;38657.22;;;-142.93;100.00
10840;BME280;5473;42.706;23.328;2023-02-12T12:49:54;38659.19;;;-142.93;100.00
10840;BME280;5473;42.706;23.328;2023-02-12T12:52:50;38657.22;;;-142.93;100.00
10840;BME280;5473;42.706;23.328;2023-02-12T12:55:50;38661.19;;;-142.93;100.00
10840;BME280;5473;42.706;23.328;2023-02-12T12:58:26;38655.22;;;-142.93;100.00
10840;BME280;5473;42.706;23.328;2023-02-12T13:01:09;38619.38;;;-142.93;100.00
10840;BME280;5473;42.706;23.328;2023-02-12T13:04:05;38597.50;;;-142.93;100.00
10840;BME280;5473;42.706;23.328;2023-02-12T13:07:02;38655.22;;;-142.93;100.00